Time;durP1;ratioP1;P1;durP2;ratioP2;P2;SDS_P1;SDS_P2;PMS_P1;PMS_P2;Temp;Humidity;BMP_temperature;BMP_pressure;BME280_temperature;BME280_humidity;BME280_pressure;Samples;Min_cycle;Max_cycle;Signal;HPM_P1;HPM_P2
2021/11/14 00:00:25;;;;;;;62.83;30.45;;;;;;;7.77;100.00;101840.50;10195844;28;20554;-68
2021/11/14 00:05:22;;;;;;;69.43;31.85;;;;;;;7.78;100.00;101842.97;10192051;28;20168;-68
2021/11/14 00:10:20;;;;;;;65.97;30.88;;;;;;;7.77;100.00;101846.78;10194118;28;20085;-68
2021/11/14 00:15:16;;;;;;;68.55;31.80;;;;;;;7.79;100.00;101860.13;10188129;28;20496;-69
2021/11/14 00:20:13;;;;;;;66.63;29.80;;;;;;;7.79;100.00;101860.13;10193769;28;20077;-69
2021/11/14 00:25:13;;;;;;;73.50;30.20;;;;;;;7.79;100.00;101869.09;10190030;28;20045;-69
2021/11/14 00:30:10;;;;;;;72.97;32.03;;;;;;;7.78;100.00;101880.28;10187978;28;20077;-69
2021/11/14 00:35:09;;;;;;;78.50;31.52;;;;;;;7.75;100.00;101876.19;10195198;28;20072;-67
2021/11/14 00:40:10;;;;;;;57.85;29.27;;;;;;;7.77;100.00;101878.63;10185667;28;20120;-68
2021/11/14 00:45:08;;;;;;;73.15;31.52;;;;;;;7.76;100.00;101883.25;10185205;28;20613;-68
2021/11/14 00:50:10;;;;;;;63.85;31.02;;;;;;;7.75;100.00;101892.53;10191743;28;20049;-68
2021/11/14 00:55:09;;;;;;;60.17;30.15;;;;;;;7.78;100.00;101888.44;10190374;28;20054;-68
2021/11/14 01:00:10;;;;;;;54.80;26.40;;;;;;;7.75;100.00;101889.81;10203772;28;20058;-67
2021/11/14 01:05:10;;;;;;;52.38;26.10;;;;;;;7.75;100.00;101908.84;10188391;28;20048;-66
2021/11/14 01:10:09;;;;;;;45.30;24.38;;;;;;;7.75;100.00;101903.41;10191792;28;20054;-68
2021/11/14 01:15:06;;;;;;;49.28;25.35;;;;;;;7.79;100.00;101922.75;10186012;28;20085;-68
2021/11/14 01:20:03;;;;;;;47.90;24.58;;;;;;;7.78;100.00;101921.94;10186980;28;20050;-68
2021/11/14 01:25:00;;;;;;;45.30;25.10;;;;;;;7.80;100.00;101932.56;10184538;28;20120;-68
2021/11/14 01:29:56;;;;;;;53.05;24.17;;;;;;;7.78;100.00;101940.97;10185199;28;20508;-68
2021/11/14 01:34:53;;;;;;;43.35;24.10;;;;;;;7.77;100.00;101933.91;10191018;28;20038;-68
2021/11/14 01:39:49;;;;;;;46.15;24.90;;;;;;;7.76;100.00;101937.72;10185289;28;20065;-68
2021/11/14 01:44:46;;;;;;;52.15;27.40;;;;;;;7.76;100.00;101939.63;10191306;28;20557;-67
2021/11/14 01:49:43;;;;;;;54.55;26.55;;;;;;;7.77;100.00;101946.69;10185598;28;20440;-68
2021/11/14 01:54:39;;;;;;;48.10;25.98;;;;;;;7.76;100.00;101948.59;10184581;28;20152;-68
2021/11/14 01:59:37;;;;;;;51.90;25.65;;;;;;;7.80;100.00;101954.34;10183629;28;20054;-68
2021/11/14 02:04:34;;;;;;;48.45;25.25;;;;;;;7.80;100.00;101957.88;10189500;28;20483;-69
2021/11/14 02:09:33;;;;;;;52.17;25.17;;;;;;;7.76;100.00;101959.50;10188268;28;20096;-68
2021/11/14 02:14:30;;;;;;;59.20;27.55;;;;;;;7.74;100.00;101967.09;10184803;28;20115;-68
2021/11/14 02:19:26;;;;;;;67.63;29.17;;;;;;;7.74;100.00;101972.56;10191540;28;20073;-68
2021/11/14 02:24:23;;;;;;;60.42;28.00;;;;;;;7.74;100.00;101978.00;10185478;28;20084;-68
2021/11/14 02:29:20;;;;;;;63.35;28.23;;;;;;;7.74;100.00;101988.06;10184903;28;20041;-68
2021/11/14 02:34:16;;;;;;;61.38;29.65;;;;;;;7.66;100.00;101989.41;10180263;28;20066;-68
2021/11/14 02:39:13;;;;;;;61.33;30.23;;;;;;;7.66;100.00;101992.13;10173791;28;20739;-67
2021/11/14 02:44:10;;;;;;;64.22;29.27;;;;;;;7.68;100.00;101994.56;10189829;28;20516;-69
2021/11/14 02:49:07;;;;;;;57.63;26.88;;;;;;;7.72;100.00;102001.94;10183996;28;20081;-67
2021/11/14 02:54:03;;;;;;;60.78;29.05;;;;;;;7.72;100.00;102004.66;10186059;28;20516;-68
2021/11/14 02:59:01;;;;;;;67.50;27.90;;;;;;;7.72;100.00;102001.94;10177733;28;20046;-68
2021/11/14 03:03:58;;;;;;;58.20;26.70;;;;;;;7.71;100.00;102011.22;10181230;28;20608;-68
2021/11/14 03:08:55;;;;;;;52.45;23.90;;;;;;;7.64;100.00;102016.09;10187333;28;20077;-68
2021/11/14 03:13:52;;;;;;;51.15;24.33;;;;;;;7.69;100.00;102024.25;10180981;28;20076;-67
2021/11/14 03:18:49;;;;;;;56.75;26.02;;;;;;;7.70;100.00;102020.44;10185789;28;20136;-68
2021/11/14 03:23:46;;;;;;;51.20;25.10;;;;;;;7.73;100.00;102019.94;10184778;28;20515;-68
2021/11/14 03:28:43;;;;;;;54.55;24.42;;;;;;;7.73;100.00;102027.28;10183301;28;20089;-68
2021/11/14 03:33:41;;;;;;;42.75;22.05;;;;;;;7.75;100.00;102031.38;10180678;28;20096;-68
2021/11/14 03:38:44;;;;;;;46.70;22.58;;;;;;;7.78;100.00;102049.09;10185687;28;20034;-68
2021/11/14 03:43:41;;;;;;;46.40;22.65;;;;;;;7.82;100.00;102052.06;10190963;28;20051;-69
2021/11/14 03:48:41;;;;;;;46.13;21.77;;;;;;;7.80;100.00;102055.91;10190533;28;20041;-68
2021/11/14 03:53:38;;;;;;;57.15;24.15;;;;;;;7.78;100.00;102060.78;10188492;28;20096;-68
2021/11/14 03:58:35;;;;;;;48.30;23.02;;;;;;;7.77;100.00;102059.16;10191754;28;20046;-68
2021/11/14 04:03:32;;;;;;;47.70;22.38;;;;;;;7.82;100.00;102065.69;10182901;28;20073;-67
2021/11/14 04:08:29;;;;;;;46.45;20.85;;;;;;;7.82;100.00;102071.13;10189635;28;20042;-68
2021/11/14 04:13:30;;;;;;;54.70;22.55;;;;;;;7.83;100.00;102075.50;10189886;28;20089;-68
2021/11/14 04:18:26;;;;;;;49.95;22.60;;;;;;;7.85;100.00;102081.50;10194179;28;20177;-69
2021/11/14 04:23:24;;;;;;;65.63;24.17;;;;;;;7.83;100.00;102092.66;10189983;28;20123;-68
2021/11/14 04:28:21;;;;;;;58.00;22.42;;;;;;;7.84;100.00;102090.75;10189320;28;20074;-68
2021/11/14 04:33:19;;;;;;;61.38;24.80;;;;;;;7.82;100.00;102092.91;10194624;28;20500;-68
2021/11/14 04:38:16;;;;;;;60.53;23.80;;;;;;;7.83;100.00;102100.03;10185376;28;20046;-69
2021/11/14 04:43:14;;;;;;;71.55;23.98;;;;;;;7.76;100.00;102106.50;10191581;28;20104;-68
2021/11/14 04:48:11;;;;;;;60.20;23.95;;;;;;;7.79;100.00;102105.16;10186652;28;20081;-68
2021/11/14 04:53:08;;;;;;;57.83;23.42;;;;;;;7.83;100.00;102113.63;10182565;28;20082;-68
2021/11/14 04:58:06;;;;;;;67.35;24.65;;;;;;;7.84;100.00;102112.53;10180693;28;20054;-68
2021/11/14 05:03:02;;;;;;;65.40;27.08;;;;;;;7.83;100.00;102117.16;10189346;28;20085;-68
2021/11/14 05:07:59;;;;;;;70.32;26.90;;;;;;;7.82;100.00;102112.81;10182728;28;20050;-68
2021/11/14 05:12:55;;;;;;;67.80;25.60;;;;;;;7.80;100.00;102118.53;10186042;28;20069;-68
2021/11/14 05:17:52;;;;;;;80.03;29.63;;;;;;;7.79;100.00;102119.59;10195238;28;20053;-67
2021/11/14 05:22:49;;;;;;;76.40;30.90;;;;;;;7.79;100.00;102130.47;10179011;28;20517;-66
2021/11/14 05:27:47;;;;;;;75.60;30.90;;;;;;;7.82;100.00;102131.88;10183745;28;20065;-67
2021/11/14 05:32:43;;;;;;;74.18;28.50;;;;;;;7.83;100.00;102132.69;10190931;28;20038;-69
2021/11/14 05:37:39;;;;;;;80.38;30.50;;;;;;;7.77;100.00;102138.13;10188480;28;20128;-69
2021/11/14 05:42:36;;;;;;;78.90;32.70;;;;;;;7.85;100.00;102146.88;10189686;28;20108;-69
2021/11/14 05:47:33;;;;;;;74.82;29.98;;;;;;;7.88;100.00;102157.22;10183361;28;20074;-67
2021/11/14 05:52:29;;;;;;;75.05;31.63;;;;;;;7.87;100.00;102161.03;10187099;28;20080;-68
2021/11/14 05:57:26;;;;;;;82.47;34.33;;;;;;;7.88;100.00;102173.56;10190950;28;20072;-68
2021/11/14 06:02:41;;;;;;;84.53;34.95;;;;;;;7.90;100.00;102179.56;10183713;28;20089;-68
2021/11/14 06:07:37;;;;;;;93.20;36.92;;;;;;;7.88;100.00;102179.00;10185876;28;20499;-68
2021/11/14 06:12:35;;;;;;;93.57;38.08;;;;;;;7.90;100.00;102191.28;10188411;28;20042;-67
2021/11/14 06:17:31;;;;;;;95.35;37.78;;;;;;;7.92;100.00;102196.47;10187595;28;20072;-69
2021/11/14 06:22:28;;;;;;;100.45;40.97;;;;;;;7.94;100.00;102199.75;10190198;28;20092;-67
2021/11/14 06:27:24;;;;;;;94.90;39.95;;;;;;;7.90;100.00;102210.34;10184879;28;20038;-68
2021/11/14 06:32:21;;;;;;;87.00;40.50;;;;;;;7.91;100.00;102222.84;10188674;28;20046;-69
2021/11/14 06:37:17;;;;;;;93.63;42.38;;;;;;;7.88;100.00;102233.47;10182944;28;20544;-68
2021/11/14 06:42:14;;;;;;;99.43;41.67;;;;;;;7.91;100.00;102243.84;10182618;28;20046;-68
2021/11/14 06:47:12;;;;;;;87.47;39.53;;;;;;;7.91;100.00;102260.19;10175867;28;20058;-68
2021/11/14 06:52:08;;;;;;;98.47;41.08;;;;;;;7.89;100.00;102256.88;10189180;28;20041;-68
2021/11/14 06:57:05;;;;;;;88.35;40.20;;;;;;;7.91;100.00;102271.06;10180822;28;20066;-67
2021/11/14 07:02:02;;;;;;;81.82;37.95;;;;;;;7.92;100.00;102281.72;10179328;28;20045;-69
2021/11/14 07:06:58;;;;;;;94.47;40.92;;;;;;;7.92;100.00;102295.34;10180251;28;20067;-69
2021/11/14 07:11:55;;;;;;;89.32;39.17;;;;;;;7.91;100.00;102298.31;10189199;28;20104;-69
2021/11/14 07:16:52;;;;;;;84.03;38.63;;;;;;;7.96;100.00;102317.41;10187351;28;20104;-68
2021/11/14 07:21:50;;;;;;;85.28;38.75;;;;;;;7.95;100.00;102315.78;10193277;28;20104;-67
2021/11/14 07:26:46;;;;;;;86.88;40.25;;;;;;;7.93;100.00;102328.81;10189421;28;20200;-68
2021/11/14 07:31:43;;;;;;;88.50;39.05;;;;;;;7.91;100.00;102336.44;10190578;28;20073;-69
2021/11/14 07:36:39;;;;;;;87.63;38.17;;;;;;;7.94;100.00;102342.19;10189716;28;20069;-67
2021/11/14 07:41:36;;;;;;;77.25;35.22;;;;;;;8.00;100.00;102346.56;10194020;28;20627;-68
2021/11/14 07:46:32;;;;;;;83.60;38.80;;;;;;;8.07;100.00;102357.25;10190003;28;20696;-67
2021/11/14 07:51:29;;;;;;;87.95;40.67;;;;;;;8.11;100.00;102357.56;10195539;28;20049;-67
2021/11/14 07:56:25;;;;;;;91.32;39.45;;;;;;;8.16;100.00;102369.31;10194607;28;20038;-69
2021/11/14 08:01:22;;;;;;;80.43;36.50;;;;;;;8.13;100.00;102372.56;10190684;28;20529;-68
2021/11/14 08:06:20;;;;;;;87.78;37.40;;;;;;;8.11;100.00;102382.91;10183089;28;20622;-68
2021/11/14 08:11:16;;;;;;;82.93;37.42;;;;;;;8.15;100.00;102381.31;10187136;28;20049;-68
2021/11/14 08:16:13;;;;;;;87.72;38.05;;;;;;;8.18;100.00;102388.94;10197701;28;20046;-68
2021/11/14 08:21:09;;;;;;;85.05;37.22;;;;;;;8.25;100.00;102401.53;10186052;28;20042;-67
2021/11/14 08:26:06;;;;;;;84.47;37.92;;;;;;;8.21;100.00;102402.09;10186818;28;20041;-68
2021/11/14 08:31:02;;;;;;;83.28;37.20;;;;;;;8.14;100.00;102406.91;10189747;28;20120;-68
2021/11/14 08:36:06;;;;;;;82.28;34.35;;;;;;;8.18;100.00;102402.59;10188237;28;20038;-68
2021/11/14 08:41:03;;;;;;;75.30;33.35;;;;;;;8.19;100.00;102404.25;10188080;28;20508;-67
2021/11/14 08:46:00;;;;;;;70.60;32.65;;;;;;;8.28;100.00;102422.81;10187587;28;20092;-68
2021/11/14 08:50:57;;;;;;;82.20;36.92;;;;;;;8.36;100.00;102430.53;10186557;28;20065;-68
2021/11/14 08:55:54;;;;;;;76.50;35.30;;;;;;;8.39;100.00;102430.00;10187560;28;20716;-68
2021/11/14 09:01:00;;;;;;;72.45;33.45;;;;;;;8.43;100.00;102442.06;10187663;28;20045;-67
2021/11/14 09:05:57;;;;;;;69.60;31.42;;;;;;;8.39;100.00;102440.91;10180828;28;20100;-68
2021/11/14 09:10:54;;;;;;;64.65;30.33;;;;;;;8.43;100.00;102444.78;10184495;28;20116;-68
2021/11/14 09:15:52;;;;;;;71.80;32.22;;;;;;;8.41;100.00;102445.03;10182338;28;20112;-68
2021/11/14 09:20:49;;;;;;;62.85;29.15;;;;;;;8.35;100.00;102456.94;10186260;28;20046;-68
2021/11/14 09:25:46;;;;;;;62.08;29.88;;;;;;;8.44;100.00;102465.50;10186467;28;20073;-68
2021/11/14 09:30:48;;;;;;;63.55;29.48;;;;;;;8.47;100.00;102484.06;10178136;28;20504;-68
2021/11/14 09:35:46;;;;;;;62.88;29.27;;;;;;;8.35;100.00;102486.09;10186925;28;20053;-68
2021/11/14 09:40:43;;;;;;;60.38;28.10;;;;;;;8.39;100.00;102495.41;10187668;28;20570;-68
2021/11/14 09:45:39;;;;;;;64.55;31.63;;;;;;;8.44;100.00;102492.75;10186993;28;20069;-68
2021/11/14 09:50:36;;;;;;;66.55;30.17;;;;;;;8.44;100.00;102498.19;10180185;28;20222;-68
2021/11/14 09:55:36;;;;;;;67.07;30.05;;;;;;;8.47;100.00;102508.63;10181623;28;20507;-67
2021/11/14 10:00:34;;;;;;;62.22;30.48;;;;;;;8.54;100.00;102517.41;10187290;28;20061;-68
2021/11/14 10:05:32;;;;;;;61.92;29.85;;;;;;;8.60;100.00;102513.59;10180769;28;20495;-68
2021/11/14 10:10:31;;;;;;;71.80;33.20;;;;;;;8.64;100.00;102513.91;10185482;28;20466;-67
2021/11/14 10:15:44;;;;;;;78.03;35.42;;;;;;;8.58;100.00;102521.22;10185530;28;20042;-69
2021/11/14 10:20:41;;;;;;;79.57;36.88;;;;;;;8.69;100.00;102522.13;10185655;28;20046;-68
2021/11/14 10:25:39;;;;;;;78.70;39.25;;;;;;;8.76;100.00;102520.00;10189772;28;20112;-71
2021/11/14 10:30:44;;;;;;;70.82;33.33;;;;;;;8.78;100.00;102525.22;10185563;28;20073;-69
2021/11/14 10:35:43;;;;;;;75.32;36.88;;;;;;;8.88;100.00;102525.25;10183072;28;20046;-68
2021/11/14 10:40:48;;;;;;;74.75;39.22;;;;;;;8.88;100.00;102533.44;10186102;28;20073;-68
2021/11/14 10:45:45;;;;;;;73.03;37.58;;;;;;;8.89;100.00;102521.47;10191564;28;20113;-69
2021/11/14 10:50:48;;;;;;;66.35;32.22;;;;;;;8.92;100.00;102529.13;10203655;28;20074;-69
2021/11/14 10:55:47;;;;;;;66.38;31.50;;;;;;;8.91;100.00;102535.69;10190342;28;20042;-68
2021/11/14 11:00:46;;;;;;;66.28;32.78;;;;;;;8.94;100.00;102546.06;10192626;28;20053;-68
2021/11/14 11:05:42;;;;;;;60.10;28.80;;;;;;;8.94;100.00;102540.59;10189449;28;20052;-69
2021/11/14 11:10:47;;;;;;;62.35;29.15;;;;;;;8.84;100.00;102540.50;10195488;28;20049;-68
2021/11/14 11:15:47;;;;;;;62.13;32.10;;;;;;;8.93;100.00;102549.84;10185076;28;20046;-68
2021/11/14 11:20:49;;;;;;;65.10;30.10;;;;;;;8.62;98.27;102555.06;10186745;28;20072;-69
2021/11/14 11:25:48;;;;;;;66.90;31.60;;;;;;;8.82;99.48;102553.63;10189012;28;20069;-68
2021/11/14 11:30:51;;;;;;;68.72;31.58;;;;;;;8.82;98.76;102559.06;10190832;28;20074;-68
2021/11/14 11:35:49;;;;;;;62.25;31.75;;;;;;;8.84;97.49;102556.88;10187814;28;20185;-69
2021/11/14 11:40:51;;;;;;;63.10;31.60;;;;;;;8.92;98.21;102556.41;10194602;28;20069;-68
2021/11/14 11:45:50;;;;;;;63.97;30.30;;;;;;;8.89;97.87;102567.84;10187853;28;20069;-68
2021/11/14 11:50:47;;;;;;;62.45;29.95;;;;;;;8.96;98.71;102560.25;10189617;28;20042;-69
2021/11/14 11:55:44;;;;;;;65.03;29.02;;;;;;;8.94;97.36;102567.88;10186086;28;20046;-69
2021/11/14 12:01:18;;;;;;;58.33;26.83;;;;;;;8.87;95.06;102556.38;10191056;28;20112;-67
2021/11/14 12:06:18;;;;;;;62.42;29.75;;;;;;;8.82;95.38;102565.34;10189710;28;20125;-68
2021/11/14 12:11:28;;;;;;;58.22;26.88;;;;;;;8.82;94.24;102569.97;10187904;28;20096;-68
2021/11/14 12:16:30;;;;;;;57.22;28.20;;;;;;;8.91;95.65;102573.88;10187177;28;20077;-68
2021/11/14 12:21:31;;;;;;;65.07;31.17;;;;;;;8.97;96.76;102578.25;10191219;28;20054;-69
2021/11/14 12:26:31;;;;;;;62.67;28.55;;;;;;;9.04;96.62;102576.13;10186828;28;20081;-67
2021/11/14 12:31:30;;;;;;;62.55;28.00;;;;;;;9.04;96.48;102580.78;10192406;28;20084;-68
2021/11/14 12:36:41;;;;;;;64.78;28.65;;;;;;;8.94;94.92;102573.34;10187822;28;20045;-68
2021/11/14 12:41:40;;;;;;;65.55;28.38;;;;;;;8.86;95.02;102587.44;10191185;28;20097;-69
2021/11/14 12:46:36;;;;;;;62.60;26.98;;;;;;;8.89;94.80;102586.94;10181241;28;20070;-68
2021/11/14 12:51:33;;;;;;;52.90;24.23;;;;;;;8.92;94.05;102591.06;10191176;28;20037;-69
2021/11/14 12:56:32;;;;;;;62.42;28.73;;;;;;;8.90;94.34;102604.94;10189354;28;20042;-69
2021/11/14 13:01:31;;;;;;;58.53;27.35;;;;;;;8.83;93.53;102598.88;10191962;28;20072;-68
2021/11/14 13:06:35;;;;;;;62.67;27.38;;;;;;;8.74;94.64;102614.06;10186426;28;20053;-68
2021/11/14 13:11:32;;;;;;;63.08;27.38;;;;;;;8.83;93.48;102599.69;10204398;28;20046;-68
2021/11/14 13:16:29;;;;;;;58.10;25.15;;;;;;;8.85;94.23;102610.38;10193849;28;20081;-69
2021/11/14 13:21:28;;;;;;;53.55;23.88;;;;;;;8.72;94.32;102608.88;10200864;28;20060;-69
2021/11/14 13:26:35;;;;;;;54.85;23.83;;;;;;;8.76;95.11;102609.19;10200951;28;20057;-68
2021/11/14 13:31:32;;;;;;;52.38;21.85;;;;;;;8.76;97.89;102618.19;10203365;28;20053;-68
2021/11/14 13:36:33;;;;;;;51.67;22.85;;;;;;;8.72;94.11;102632.59;10195091;28;20076;-68
2021/11/14 13:41:29;;;;;;;51.83;23.73;;;;;;;8.78;93.04;102624.22;10207723;28;20573;-68
2021/11/14 13:46:28;;;;;;;48.38;22.77;;;;;;;8.77;92.73;102632.63;10195459;28;20046;-69
2021/11/14 13:51:27;;;;;;;56.38;24.77;;;;;;;8.70;92.90;102642.94;10193635;28;20045;-68
2021/11/14 13:56:24;;;;;;;56.45;25.02;;;;;;;8.66;93.57;102636.34;10192040;28;20053;-68
2021/11/14 14:01:23;;;;;;;58.80;26.42;;;;;;;8.61;93.93;102646.16;10192386;28;20053;-69
2021/11/14 14:06:20;;;;;;;49.58;23.70;;;;;;;8.65;94.20;102651.91;10198187;28;20045;-69
2021/11/14 14:11:17;;;;;;;53.85;22.98;;;;;;;8.62;94.31;102647.78;10182438;28;20504;-68
2021/11/14 14:16:14;;;;;;;50.38;23.83;;;;;;;8.65;94.10;102660.06;10195181;28;20073;-68
2021/11/14 14:21:10;;;;;;;59.30;26.02;;;;;;;8.71;94.68;102655.50;10188998;28;20042;-68
2021/11/14 14:26:21;;;;;;;58.08;26.52;;;;;;;8.64;95.03;102650.25;10185786;28;20109;-68
2021/11/14 14:31:21;;;;;;;61.22;26.58;;;;;;;8.68;96.50;102656.84;10204553;28;20054;-69
2021/11/14 14:36:18;;;;;;;58.65;26.50;;;;;;;8.64;95.26;102664.72;10202189;28;20084;-67
2021/11/14 14:41:18;;;;;;;61.55;27.98;;;;;;;8.67;95.74;102668.00;10202714;28;20478;-68
2021/11/14 14:46:29;;;;;;;58.75;26.55;;;;;;;8.61;96.87;102661.69;10191028;28;20050;-68
2021/11/14 14:51:26;;;;;;;59.55;27.02;;;;;;;8.58;96.90;102668.47;10199205;28;20107;-69
2021/11/14 14:56:29;;;;;;;61.00;25.80;;;;;;;8.62;96.68;102672.31;10208229;28;20136;-68
2021/11/14 15:01:27;;;;;;;61.00;27.52;;;;;;;8.60;97.29;102677.22;10201146;28;20061;-68
2021/11/14 15:06:25;;;;;;;62.67;26.02;;;;;;;8.58;97.88;102687.53;10196474;28;20045;-69
2021/11/14 15:11:31;;;;;;;61.15;27.40;;;;;;;8.63;97.30;102690.34;10192373;28;20475;-69
2021/11/14 15:16:27;;;;;;;64.60;28.70;;;;;;;8.52;96.96;102696.75;10193403;28;20065;-68
2021/11/14 15:21:24;;;;;;;63.58;30.15;;;;;;;8.55;97.25;102701.69;10183210;28;20045;-69
2021/11/14 15:26:20;;;;;;;58.05;26.25;;;;;;;8.49;96.61;102694.53;10195154;28;20079;-69
2021/11/14 15:31:19;;;;;;;54.28;25.38;;;;;;;8.48;97.21;102700.25;10197976;28;20070;-68
2021/11/14 15:36:18;;;;;;;49.95;23.27;;;;;;;8.35;96.56;102695.97;10203275;28;20042;-69
2021/11/14 15:41:15;;;;;;;50.22;23.50;;;;;;;8.37;96.63;102710.19;10204426;28;20042;-68
2021/11/14 15:46:11;;;;;;;48.95;22.60;;;;;;;8.38;96.75;102711.84;10198576;28;20049;-68
2021/11/14 15:51:08;;;;;;;50.78;23.58;;;;;;;8.38;96.77;102718.09;10195044;28;20265;-68
2021/11/14 15:56:07;;;;;;;49.95;23.75;;;;;;;8.37;95.98;102710.19;10197274;28;20053;-69
2021/11/14 16:01:03;;;;;;;55.28;25.67;;;;;;;8.38;97.26;102722.75;10200301;28;20125;-69
2021/11/14 16:06:00;;;;;;;55.40;25.40;;;;;;;8.29;96.80;102718.81;10201476;28;20491;-69
2021/11/14 16:10:57;;;;;;;58.60;25.27;;;;;;;8.32;97.04;102731.91;10194869;28;20072;-69
2021/11/14 16:15:53;;;;;;;58.58;26.77;;;;;;;8.40;97.68;102731.50;10206278;28;20496;-69
2021/11/14 16:20:50;;;;;;;52.22;24.67;;;;;;;8.32;98.98;102719.13;10205164;28;20042;-69
2021/11/14 16:25:46;;;;;;;62.75;29.15;;;;;;;8.38;98.36;102733.66;10202740;28;20092;-69
2021/11/14 16:30:42;;;;;;;60.75;28.75;;;;;;;8.23;98.37;102737.78;10207162;28;20068;-68
2021/11/14 16:35:40;;;;;;;58.03;27.38;;;;;;;8.31;98.78;102744.72;10208401;28;20053;-68
2021/11/14 16:40:36;;;;;;;58.78;25.40;;;;;;;8.28;99.84;102741.69;10208348;28;20129;-69
2021/11/14 16:45:33;;;;;;;64.10;28.23;;;;;;;8.38;100.00;102755.44;10203309;28;20458;-69
2021/11/14 16:50:29;;;;;;;57.53;26.20;;;;;;;8.40;100.00;102758.75;10183240;28;20046;-68
2021/11/14 16:55:29;;;;;;;62.75;28.95;;;;;;;8.35;99.59;102766.84;10213987;28;20042;-69
2021/11/14 17:00:26;;;;;;;60.47;25.77;;;;;;;8.37;99.73;102764.69;10192003;28;21622;-69
2021/11/14 17:05:23;;;;;;;68.60;28.95;;;;;;;8.31;99.26;102771.13;10182870;28;20069;-69
2021/11/14 17:10:20;;;;;;;61.65;26.80;;;;;;;8.30;99.34;102785.84;10210233;28;20038;-69
2021/11/14 17:15:16;;;;;;;59.78;25.35;;;;;;;8.19;100.00;102785.72;10199210;28;20076;-69
2021/11/14 17:20:13;;;;;;;58.92;26.17;;;;;;;8.27;100.00;102789.09;10194042;28;20082;-69
2021/11/14 17:25:10;;;;;;;57.17;25.25;;;;;;;8.22;100.00;102787.94;10194075;28;20062;-69
2021/11/14 17:30:09;;;;;;;62.22;25.27;;;;;;;8.27;100.00;102802.72;10205851;28;20129;-68
2021/11/14 17:35:08;;;;;;;60.72;25.20;;;;;;;8.21;100.00;102794.47;10191230;28;20116;-69
2021/11/14 17:40:07;;;;;;;63.35;26.67;;;;;;;8.22;100.00;102795.28;10204701;28;20049;-69
2021/11/14 17:45:05;;;;;;;55.47;24.25;;;;;;;8.25;100.00;102793.97;10202970;28;20057;-68
2021/11/14 17:50:03;;;;;;;56.92;23.58;;;;;;;8.03;100.00;102794.75;10199315;28;20621;-70
2021/11/14 17:54:59;;;;;;;57.28;24.13;;;;;;;8.04;100.00;102804.56;10202882;28;20115;-69
2021/11/14 17:59:56;;;;;;;54.50;25.20;;;;;;;8.05;100.00;102817.09;10188080;28;20110;-69
2021/11/14 18:04:52;;;;;;;51.50;21.55;;;;;;;8.11;100.00;102816.13;10193983;28;20088;-70
2021/11/14 18:09:49;;;;;;;53.38;23.10;;;;;;;8.08;100.00;102813.91;10197279;28;20084;-70
2021/11/14 18:14:46;;;;;;;61.65;26.02;;;;;;;8.11;100.00;102818.84;10198779;28;20072;-70
2021/11/14 18:19:44;;;;;;;64.35;27.30;;;;;;;8.12;100.00;102825.09;10197597;28;20045;-67
2021/11/14 18:24:44;;;;;;;61.75;26.08;;;;;;;8.07;99.92;102820.41;10206179;28;20045;-68
2021/11/14 18:29:41;;;;;;;69.45;28.80;;;;;;;8.06;100.00;102818.78;10192794;28;21632;-70
2021/11/14 18:34:38;;;;;;;70.20;28.38;;;;;;;8.00;100.00;102819.75;10200525;28;20072;-69
2021/11/14 18:39:35;;;;;;;64.25;29.20;;;;;;;8.00;99.79;102830.66;10195756;28;20038;-70
2021/11/14 18:44:33;;;;;;;65.72;29.92;;;;;;;8.00;100.00;102836.91;10198602;28;20052;-70
2021/11/14 18:49:29;;;;;;;65.30;28.38;;;;;;;8.02;100.00;102839.41;10188803;28;20581;-69
2021/11/14 18:54:26;;;;;;;69.03;31.33;;;;;;;8.01;100.00;102843.22;10197920;28;20205;-69
2021/11/14 18:59:23;;;;;;;68.20;29.20;;;;;;;7.89;99.23;102856.06;10197210;28;20045;-69
2021/11/14 19:04:20;;;;;;;64.95;27.77;;;;;;;7.92;99.70;102850.16;10200456;28;20704;-69
2021/11/14 19:09:19;;;;;;;73.03;31.83;;;;;;;7.94;99.24;102869.81;10163384;28;20069;-69
2021/11/14 19:14:15;;;;;;;71.07;33.17;;;;;;;7.80;97.77;102870.13;10201711;28;20054;-69
2021/11/14 19:19:13;;;;;;;72.00;34.30;;;;;;;7.73;96.65;102879.53;10216998;28;20104;-70
2021/11/14 19:24:09;;;;;;;69.20;31.15;;;;;;;7.73;96.34;102880.34;10207348;28;20259;-69
2021/11/14 19:29:06;;;;;;;70.22;32.63;;;;;;;7.68;96.11;102877.53;10204343;28;20080;-70
2021/11/14 19:34:03;;;;;;;67.03;32.45;;;;;;;7.69;95.17;102879.19;10200168;28;20631;-69
2021/11/14 19:39:00;;;;;;;62.78;31.67;;;;;;;7.77;95.01;102881.50;10200882;28;20077;-69
2021/11/14 19:43:57;;;;;;;67.25;33.65;;;;;;;7.69;94.06;102889.25;10205595;28;20069;-69
2021/11/14 19:48:55;;;;;;;71.03;33.58;;;;;;;7.62;92.63;102883.94;10198246;28;20443;-69
2021/11/14 19:53:51;;;;;;;69.55;33.03;;;;;;;7.65;93.98;102883.44;10184082;28;20454;-69
2021/11/14 19:58:49;;;;;;;74.95;34.80;;;;;;;7.66;93.87;102890.56;10199790;28;20141;-68
2021/11/14 20:03:45;;;;;;;70.47;33.00;;;;;;;7.73;93.14;102895.88;10194347;28;20078;-71
2021/11/14 20:08:42;;;;;;;67.25;32.78;;;;;;;7.75;93.41;102902.72;10205727;28;20034;-69
2021/11/14 20:13:39;;;;;;;73.00;35.58;;;;;;;7.75;93.18;102905.44;10195911;28;20483;-70
2021/11/14 20:18:35;;;;;;;69.50;33.25;;;;;;;7.71;93.11;102906.16;10208678;28;20044;-69
2021/11/14 20:23:34;;;;;;;68.60;32.22;;;;;;;7.65;92.51;102915.31;10188899;28;20073;-70
2021/11/14 20:28:30;;;;;;;71.07;34.00;;;;;;;7.66;92.80;102920.53;10204048;28;20080;-69
2021/11/14 20:33:27;;;;;;;73.30;35.42;;;;;;;7.74;93.06;102927.47;10194692;28;20042;-70
2021/11/14 20:38:23;;;;;;;73.82;37.15;;;;;;;7.61;92.95;102930.47;10207531;28;20076;-70
2021/11/14 20:43:24;;;;;;;69.70;34.22;;;;;;;7.60;91.86;102926.94;10201383;28;20096;-70
2021/11/14 20:48:21;;;;;;;74.50;36.05;;;;;;;7.62;92.44;102924.78;10200043;28;20041;-70
2021/11/14 20:53:17;;;;;;;70.30;34.65;;;;;;;7.57;93.10;102935.59;10191973;28;20124;-69
2021/11/14 20:58:14;;;;;;;75.07;38.15;;;;;;;7.61;92.64;102935.91;10196112;28;20420;-70
2021/11/14 21:03:11;;;;;;;78.25;36.08;;;;;;;7.65;91.75;102929.75;10199381;28;20084;-69
2021/11/14 21:08:07;;;;;;;78.78;36.55;;;;;;;7.58;92.11;102942.69;10204254;28;20069;-69
2021/11/14 21:13:05;;;;;;;76.90;36.88;;;;;;;7.52;92.16;102938.19;10203244;28;20089;-70
2021/11/14 21:18:02;;;;;;;80.35;38.40;;;;;;;7.61;91.75;102938.63;10189408;28;20095;-70
2021/11/14 21:22:58;;;;;;;80.78;39.30;;;;;;;7.53;91.61;102934.41;10190849;28;20119;-70
2021/11/14 21:27:55;;;;;;;79.13;37.05;;;;;;;7.50;92.17;102943.91;10203175;28;20870;-70
2021/11/14 21:32:58;;;;;;;73.97;35.85;;;;;;;7.45;91.24;102953.84;10207302;28;20092;-70
2021/11/14 21:38:09;;;;;;;78.10;37.63;;;;;;;7.45;91.67;102953.84;10203882;28;20059;-70
2021/11/14 21:43:07;;;;;;;79.28;39.15;;;;;;;7.46;91.89;102944.63;10202896;28;20793;-69
2021/11/14 21:48:04;;;;;;;77.00;36.65;;;;;;;7.40;91.89;102940.97;10193583;28;20464;-69
2021/11/14 21:53:01;;;;;;;74.00;36.72;;;;;;;7.43;91.85;102940.50;10187417;28;20049;-70
2021/11/14 21:57:58;;;;;;;72.13;34.65;;;;;;;7.45;92.00;102932.06;10190486;28;20072;-70
2021/11/14 22:02:55;;;;;;;84.57;41.05;;;;;;;7.49;91.46;102933.25;10183318;28;20069;-69
2021/11/14 22:07:52;;;;;;;80.35;37.38;;;;;;;7.46;91.82;102944.63;10189411;28;20129;-70
2021/11/14 22:12:52;;;;;;;81.68;36.90;;;;;;;7.45;92.14;102942.97;10201670;28;20451;-69
2021/11/14 22:17:49;;;;;;;76.55;37.85;;;;;;;7.47;92.13;102946.28;10202345;28;20111;-69
2021/11/14 22:22:47;;;;;;;83.07;37.50;;;;;;;7.40;92.98;102951.84;10196046;28;20141;-70